sensor_id;sensor_type;location;lat;lon;timestamp;P1;durP1;ratioP1;P2;durP2;ratioP2
35326;SDS011;21436;52.348;20.928;2023-02-15T00:00:11;128.30;;;49.90;;
35326;SDS011;21436;52.348;20.928;2023-02-15T00:02:59;113.13;;;48.03;;
35326;SDS011;21436;52.348;20.928;2023-02-15T00:05:29;132.15;;;52.95;;
35326;SDS011;21436;52.348;20.928;2023-02-15T00:07:58;139.27;;;54.88;;
35326;SDS011;21436;52.348;20.928;2023-02-15T00:10:26;138.88;;;55.50;;
35326;SDS011;21436;52.348;20.928;2023-02-15T00:12:53;129.30;;;54.90;;
35326;SDS011;21436;52.348;20.928;2023-02-15T00:15:21;140.43;;;57.25;;
35326;SDS011;21436;52.348;20.928;2023-02-15T00:17:49;144.65;;;57.60;;
35326;SDS011;21436;52.348;20.928;2023-02-15T00:20:17;135.52;;;55.67;;
35326;SDS011;21436;52.348;20.928;2023-02-15T00:22:46;142.82;;;55.75;;
35326;SDS011;21436;52.348;20.928;2023-02-15T00:25:14;143.40;;;57.28;;
35326;SDS011;21436;52.348;20.928;2023-02-15T00:27:42;140.95;;;56.75;;
35326;SDS011;21436;52.348;20.928;2023-02-15T00:30:10;131.05;;;52.97;;
35326;SDS011;21436;52.348;20.928;2023-02-15T00:32:38;143.38;;;55.60;;
35326;SDS011;21436;52.348;20.928;2023-02-15T00:35:06;133.82;;;55.05;;
35326;SDS011;21436;52.348;20.928;2023-02-15T00:37:34;149.70;;;58.28;;
35326;SDS011;21436;52.348;20.928;2023-02-15T00:40:03;130.32;;;57.28;;
35326;SDS011;21436;52.348;20.928;2023-02-15T00:42:31;134.93;;;54.72;;
35326;SDS011;21436;52.348;20.928;2023-02-15T00:44:59;132.40;;;53.20;;
35326;SDS011;21436;52.348;20.928;2023-02-15T00:47:28;131.75;;;55.35;;
35326;SDS011;21436;52.348;20.928;2023-02-15T00:49:56;136.65;;;56.45;;
35326;SDS011;21436;52.348;20.928;2023-02-15T00:52:23;134.35;;;55.28;;
35326;SDS011;21436;52.348;20.928;2023-02-15T00:54:51;122.20;;;51.08;;
35326;SDS011;21436;52.348;20.928;2023-02-15T00:57:19;131.73;;;52.25;;
35326;SDS011;21436;52.348;20.928;2023-02-15T00:59:48;126.05;;;50.40;;
35326;SDS011;21436;52.348;20.928;2023-02-15T01:02:15;125.75;;;51.03;;
35326;SDS011;21436;52.348;20.928;2023-02-15T01:04:46;121.30;;;49.45;;
35326;SDS011;21436;52.348;20.928;2023-02-15T01:07:15;126.82;;;48.80;;
35326;SDS011;21436;52.348;20.928;2023-02-15T01:09:44;125.55;;;49.00;;
35326;SDS011;21436;52.348;20.928;2023-02-15T01:12:12;123.85;;;50.67;;
35326;SDS011;21436;52.348;20.928;2023-02-15T01:14:40;136.00;;;52.58;;
35326;SDS011;21436;52.348;20.928;2023-02-15T01:17:08;120.95;;;50.45;;
35326;SDS011;21436;52.348;20.928;2023-02-15T01:19:36;123.90;;;51.20;;
35326;SDS011;21436;52.348;20.928;2023-02-15T01:22:06;138.98;;;52.15;;
35326;SDS011;21436;52.348;20.928;2023-02-15T01:24:35;132.05;;;51.17;;
35326;SDS011;21436;52.348;20.928;2023-02-15T01:27:03;138.65;;;54.13;;
35326;SDS011;21436;52.348;20.928;2023-02-15T01:29:31;134.35;;;52.47;;
35326;SDS011;21436;52.348;20.928;2023-02-15T01:31:59;125.10;;;51.03;;
35326;SDS011;21436;52.348;20.928;2023-02-15T01:34:28;121.30;;;50.78;;
35326;SDS011;21436;52.348;20.928;2023-02-15T01:36:56;123.55;;;50.08;;
35326;SDS011;21436;52.348;20.928;2023-02-15T01:39:24;118.07;;;46.97;;
35326;SDS011;21436;52.348;20.928;2023-02-15T01:41:52;116.68;;;48.13;;
35326;SDS011;21436;52.348;20.928;2023-02-15T01:47:10;122.63;;;48.92;;
35326;SDS011;21436;52.348;20.928;2023-02-15T01:49:41;117.93;;;47.22;;
35326;SDS011;21436;52.348;20.928;2023-02-15T01:52:10;110.22;;;46.75;;
35326;SDS011;21436;52.348;20.928;2023-02-15T01:54:40;116.20;;;45.40;;
35326;SDS011;21436;52.348;20.928;2023-02-15T01:57:11;118.20;;;47.28;;
35326;SDS011;21436;52.348;20.928;2023-02-15T01:59:43;116.38;;;46.58;;
35326;SDS011;21436;52.348;20.928;2023-02-15T02:02:14;109.55;;;44.90;;
35326;SDS011;21436;52.348;20.928;2023-02-15T02:04:49;112.30;;;47.13;;
35326;SDS011;21436;52.348;20.928;2023-02-15T02:09:49;98.45;;;44.38;;
35326;SDS011;21436;52.348;20.928;2023-02-15T02:12:17;111.90;;;46.42;;
35326;SDS011;21436;52.348;20.928;2023-02-15T02:14:47;109.38;;;45.85;;
35326;SDS011;21436;52.348;20.928;2023-02-15T02:34:02;106.07;;;42.13;;
35326;SDS011;21436;52.348;20.928;2023-02-15T02:36:52;107.60;;;43.73;;
35326;SDS011;21436;52.348;20.928;2023-02-15T02:42:17;122.80;;;45.30;;
35326;SDS011;21436;52.348;20.928;2023-02-15T02:44:49;113.38;;;45.92;;
35326;SDS011;21436;52.348;20.928;2023-02-15T02:47:43;106.68;;;44.40;;
35326;SDS011;21436;52.348;20.928;2023-02-15T02:50:18;108.75;;;42.42;;
35326;SDS011;21436;52.348;20.928;2023-02-15T02:52:50;103.55;;;42.05;;
35326;SDS011;21436;52.348;20.928;2023-02-15T02:55:28;113.05;;;43.63;;
35326;SDS011;21436;52.348;20.928;2023-02-15T03:01:17;99.57;;;43.10;;
35326;SDS011;21436;52.348;20.928;2023-02-15T03:03:43;103.30;;;43.50;;
35326;SDS011;21436;52.348;20.928;2023-02-15T03:06:27;104.32;;;41.67;;
35326;SDS011;21436;52.348;20.928;2023-02-15T03:09:12;106.55;;;42.17;;
35326;SDS011;21436;52.348;20.928;2023-02-15T03:11:50;97.60;;;41.80;;
35326;SDS011;21436;52.348;20.928;2023-02-15T03:14:20;108.93;;;44.83;;
35326;SDS011;21436;52.348;20.928;2023-02-15T03:16:48;105.03;;;43.17;;
35326;SDS011;21436;52.348;20.928;2023-02-15T03:19:18;100.75;;;43.70;;
35326;SDS011;21436;52.348;20.928;2023-02-15T03:21:51;108.85;;;44.10;;
35326;SDS011;21436;52.348;20.928;2023-02-15T03:24:41;109.05;;;43.65;;
35326;SDS011;21436;52.348;20.928;2023-02-15T03:27:13;97.75;;;41.88;;
35326;SDS011;21436;52.348;20.928;2023-02-15T03:29:47;99.72;;;41.15;;
35326;SDS011;21436;52.348;20.928;2023-02-15T03:32:17;97.45;;;40.40;;
35326;SDS011;21436;52.348;20.928;2023-02-15T03:34:46;100.28;;;42.25;;
35326;SDS011;21436;52.348;20.928;2023-02-15T03:40:02;101.90;;;41.25;;
35326;SDS011;21436;52.348;20.928;2023-02-15T03:42:55;102.07;;;40.40;;
35326;SDS011;21436;52.348;20.928;2023-02-15T03:45:29;101.50;;;43.17;;
35326;SDS011;21436;52.348;20.928;2023-02-15T03:47:58;95.28;;;40.30;;
35326;SDS011;21436;52.348;20.928;2023-02-15T03:50:29;95.75;;;40.95;;
35326;SDS011;21436;52.348;20.928;2023-02-15T03:53:17;100.93;;;43.85;;
35326;SDS011;21436;52.348;20.928;2023-02-15T03:55:53;106.53;;;41.80;;
35326;SDS011;21436;52.348;20.928;2023-02-15T03:58:21;96.22;;;41.47;;
35326;SDS011;21436;52.348;20.928;2023-02-15T04:01:27;104.13;;;42.63;;
35326;SDS011;21436;52.348;20.928;2023-02-15T04:04:36;109.07;;;43.35;;
35326;SDS011;21436;52.348;20.928;2023-02-15T04:07:06;99.35;;;41.80;;
35326;SDS011;21436;52.348;20.928;2023-02-15T04:09:35;97.78;;;40.75;;
35326;SDS011;21436;52.348;20.928;2023-02-15T04:12:22;98.95;;;40.65;;
35326;SDS011;21436;52.348;20.928;2023-02-15T04:14:51;95.22;;;40.25;;
35326;SDS011;21436;52.348;20.928;2023-02-15T04:17:37;92.95;;;40.80;;
35326;SDS011;21436;52.348;20.928;2023-02-15T04:20:06;109.00;;;41.92;;
35326;SDS011;21436;52.348;20.928;2023-02-15T04:22:54;93.70;;;40.60;;
35326;SDS011;21436;52.348;20.928;2023-02-15T04:25:40;95.63;;;39.67;;
35326;SDS011;21436;52.348;20.928;2023-02-15T04:28:09;106.32;;;42.63;;
35326;SDS011;21436;52.348;20.928;2023-02-15T04:30:36;106.63;;;39.70;;
35326;SDS011;21436;52.348;20.928;2023-02-15T04:33:04;107.88;;;41.25;;
35326;SDS011;21436;52.348;20.928;2023-02-15T04:35:32;111.75;;;42.30;;
35326;SDS011;21436;52.348;20.928;2023-02-15T04:38:01;108.70;;;39.78;;
35326;SDS011;21436;52.348;20.928;2023-02-15T04:40:28;104.82;;;38.83;;
35326;SDS011;21436;52.348;20.928;2023-02-15T04:42:57;110.03;;;40.85;;
35326;SDS011;21436;52.348;20.928;2023-02-15T04:45:24;113.15;;;39.65;;
35326;SDS011;21436;52.348;20.928;2023-02-15T04:47:52;98.38;;;38.70;;
35326;SDS011;21436;52.348;20.928;2023-02-15T04:50:20;97.95;;;38.58;;
35326;SDS011;21436;52.348;20.928;2023-02-15T04:52:48;106.60;;;40.10;;
35326;SDS011;21436;52.348;20.928;2023-02-15T04:55:16;106.82;;;39.75;;
35326;SDS011;21436;52.348;20.928;2023-02-15T04:57:45;97.78;;;38.03;;
35326;SDS011;21436;52.348;20.928;2023-02-15T05:00:13;98.60;;;36.25;;
35326;SDS011;21436;52.348;20.928;2023-02-15T05:02:42;100.00;;;37.30;;
35326;SDS011;21436;52.348;20.928;2023-02-15T05:05:09;102.13;;;36.30;;
35326;SDS011;21436;52.348;20.928;2023-02-15T05:07:40;99.20;;;34.15;;
35326;SDS011;21436;52.348;20.928;2023-02-15T05:10:08;106.20;;;37.25;;
35326;SDS011;21436;52.348;20.928;2023-02-15T05:12:36;108.40;;;36.13;;
35326;SDS011;21436;52.348;20.928;2023-02-15T05:15:04;92.93;;;33.05;;
35326;SDS011;21436;52.348;20.928;2023-02-15T05:17:32;94.80;;;31.83;;
35326;SDS011;21436;52.348;20.928;2023-02-15T05:20:00;82.95;;;27.85;;
35326;SDS011;21436;52.348;20.928;2023-02-15T05:22:28;84.07;;;29.48;;
35326;SDS011;21436;52.348;20.928;2023-02-15T05:24:56;77.32;;;28.15;;
35326;SDS011;21436;52.348;20.928;2023-02-15T05:27:43;93.65;;;30.48;;
35326;SDS011;21436;52.348;20.928;2023-02-15T05:30:31;85.95;;;29.83;;
35326;SDS011;21436;52.348;20.928;2023-02-15T05:33:00;82.80;;;31.40;;
35326;SDS011;21436;52.348;20.928;2023-02-15T05:35:28;97.15;;;32.45;;
35326;SDS011;21436;52.348;20.928;2023-02-15T05:37:56;88.45;;;33.95;;
35326;SDS011;21436;52.348;20.928;2023-02-15T05:40:23;90.97;;;31.70;;
35326;SDS011;21436;52.348;20.928;2023-02-15T05:42:52;90.72;;;31.63;;
35326;SDS011;21436;52.348;20.928;2023-02-15T05:45:20;77.47;;;31.20;;
35326;SDS011;21436;52.348;20.928;2023-02-15T05:47:48;87.07;;;32.38;;
35326;SDS011;21436;52.348;20.928;2023-02-15T05:50:16;78.07;;;29.13;;
35326;SDS011;21436;52.348;20.928;2023-02-15T05:52:45;81.47;;;30.65;;
35326;SDS011;21436;52.348;20.928;2023-02-15T05:55:13;79.10;;;29.48;;
35326;SDS011;21436;52.348;20.928;2023-02-15T05:57:41;71.82;;;28.55;;
35326;SDS011;21436;52.348;20.928;2023-02-15T06:00:09;84.88;;;30.20;;
35326;SDS011;21436;52.348;20.928;2023-02-15T06:02:39;85.32;;;28.90;;
35326;SDS011;21436;52.348;20.928;2023-02-15T06:05:07;72.90;;;29.33;;
35326;SDS011;21436;52.348;20.928;2023-02-15T06:07:36;76.65;;;28.17;;
35326;SDS011;21436;52.348;20.928;2023-02-15T06:10:04;79.82;;;28.45;;
35326;SDS011;21436;52.348;20.928;2023-02-15T06:12:33;79.75;;;30.63;;
35326;SDS011;21436;52.348;20.928;2023-02-15T06:15:01;82.40;;;32.25;;
35326;SDS011;21436;52.348;20.928;2023-02-15T06:17:29;82.38;;;31.60;;
35326;SDS011;21436;52.348;20.928;2023-02-15T06:19:57;90.57;;;34.65;;
35326;SDS011;21436;52.348;20.928;2023-02-15T06:22:25;81.43;;;33.63;;
35326;SDS011;21436;52.348;20.928;2023-02-15T06:24:54;81.35;;;31.15;;
35326;SDS011;21436;52.348;20.928;2023-02-15T06:27:21;79.47;;;31.35;;
35326;SDS011;21436;52.348;20.928;2023-02-15T06:29:49;70.38;;;29.23;;
35326;SDS011;21436;52.348;20.928;2023-02-15T06:32:17;69.22;;;29.92;;
35326;SDS011;21436;52.348;20.928;2023-02-15T06:34:45;79.38;;;31.58;;
35326;SDS011;21436;52.348;20.928;2023-02-15T06:37:15;86.65;;;32.03;;
35326;SDS011;21436;52.348;20.928;2023-02-15T06:39:42;86.50;;;32.65;;
35326;SDS011;21436;52.348;20.928;2023-02-15T06:42:11;87.15;;;33.78;;
35326;SDS011;21436;52.348;20.928;2023-02-15T06:44:38;80.30;;;33.50;;
35326;SDS011;21436;52.348;20.928;2023-02-15T06:47:06;84.43;;;32.42;;
35326;SDS011;21436;52.348;20.928;2023-02-15T06:49:34;73.22;;;31.20;;
35326;SDS011;21436;52.348;20.928;2023-02-15T06:52:03;73.72;;;28.63;;
35326;SDS011;21436;52.348;20.928;2023-02-15T06:54:30;73.03;;;29.80;;
35326;SDS011;21436;52.348;20.928;2023-02-15T06:56:59;78.28;;;30.38;;
35326;SDS011;21436;52.348;20.928;2023-02-15T06:59:26;74.90;;;31.08;;
35326;SDS011;21436;52.348;20.928;2023-02-15T07:01:54;69.85;;;27.92;;
35326;SDS011;21436;52.348;20.928;2023-02-15T07:04:22;78.00;;;30.15;;
35326;SDS011;21436;52.348;20.928;2023-02-15T07:06:50;71.22;;;30.30;;
35326;SDS011;21436;52.348;20.928;2023-02-15T07:09:20;67.97;;;26.95;;
35326;SDS011;21436;52.348;20.928;2023-02-15T07:11:48;69.53;;;27.20;;
35326;SDS011;21436;52.348;20.928;2023-02-15T07:14:35;68.75;;;28.40;;
35326;SDS011;21436;52.348;20.928;2023-02-15T07:17:03;70.88;;;28.17;;
35326;SDS011;21436;52.348;20.928;2023-02-15T07:19:37;63.92;;;26.63;;
35326;SDS011;21436;52.348;20.928;2023-02-15T07:22:05;66.25;;;26.42;;
35326;SDS011;21436;52.348;20.928;2023-02-15T07:24:33;67.70;;;28.13;;
35326;SDS011;21436;52.348;20.928;2023-02-15T07:27:01;65.45;;;27.70;;
35326;SDS011;21436;52.348;20.928;2023-02-15T07:29:29;66.32;;;28.65;;
35326;SDS011;21436;52.348;20.928;2023-02-15T07:31:57;69.72;;;27.65;;
35326;SDS011;21436;52.348;20.928;2023-02-15T07:34:25;70.13;;;27.92;;
35326;SDS011;21436;52.348;20.928;2023-02-15T07:36:53;69.60;;;30.13;;
35326;SDS011;21436;52.348;20.928;2023-02-15T07:39:21;58.20;;;25.90;;
35326;SDS011;21436;52.348;20.928;2023-02-15T07:41:49;68.03;;;28.83;;
35326;SDS011;21436;52.348;20.928;2023-02-15T07:44:17;74.60;;;30.27;;
35326;SDS011;21436;52.348;20.928;2023-02-15T07:46:45;68.22;;;30.52;;
35326;SDS011;21436;52.348;20.928;2023-02-15T07:49:13;72.40;;;30.95;;
35326;SDS011;21436;52.348;20.928;2023-02-15T07:51:42;78.35;;;31.23;;
35326;SDS011;21436;52.348;20.928;2023-02-15T07:54:10;72.85;;;29.63;;
35326;SDS011;21436;52.348;20.928;2023-02-15T07:56:38;72.07;;;29.73;;
35326;SDS011;21436;52.348;20.928;2023-02-15T07:59:06;68.75;;;29.33;;
35326;SDS011;21436;52.348;20.928;2023-02-15T08:01:36;65.38;;;28.40;;
35326;SDS011;21436;52.348;20.928;2023-02-15T08:04:05;69.85;;;28.92;;
35326;SDS011;21436;52.348;20.928;2023-02-15T08:06:35;73.28;;;29.83;;
35326;SDS011;21436;52.348;20.928;2023-02-15T08:09:04;71.22;;;29.00;;
35326;SDS011;21436;52.348;20.928;2023-02-15T08:11:34;74.65;;;30.13;;
35326;SDS011;21436;52.348;20.928;2023-02-15T08:14:17;66.38;;;29.23;;
35326;SDS011;21436;52.348;20.928;2023-02-15T08:16:50;67.38;;;28.08;;
35326;SDS011;21436;52.348;20.928;2023-02-15T08:19:20;69.50;;;29.17;;
35326;SDS011;21436;52.348;20.928;2023-02-15T08:21:53;61.75;;;27.30;;
35326;SDS011;21436;52.348;20.928;2023-02-15T08:24:27;67.72;;;27.60;;
35326;SDS011;21436;52.348;20.928;2023-02-15T08:26:57;58.58;;;26.20;;
35326;SDS011;21436;52.348;20.928;2023-02-15T08:29:26;68.45;;;29.10;;
35326;SDS011;21436;52.348;20.928;2023-02-15T08:31:56;71.22;;;27.15;;
35326;SDS011;21436;52.348;20.928;2023-02-15T08:34:26;79.50;;;33.65;;
35326;SDS011;21436;52.348;20.928;2023-02-15T08:36:54;79.10;;;34.25;;
35326;SDS011;21436;52.348;20.928;2023-02-15T08:39:22;82.93;;;34.22;;
35326;SDS011;21436;52.348;20.928;2023-02-15T08:41:50;65.63;;;27.60;;
35326;SDS011;21436;52.348;20.928;2023-02-15T08:44:18;66.20;;;28.02;;
35326;SDS011;21436;52.348;20.928;2023-02-15T08:46:47;72.20;;;28.85;;
35326;SDS011;21436;52.348;20.928;2023-02-15T08:49:19;71.88;;;29.83;;
35326;SDS011;21436;52.348;20.928;2023-02-15T08:51:48;72.65;;;29.45;;
35326;SDS011;21436;52.348;20.928;2023-02-15T08:54:18;66.20;;;28.23;;
35326;SDS011;21436;52.348;20.928;2023-02-15T08:56:48;65.20;;;27.40;;
35326;SDS011;21436;52.348;20.928;2023-02-15T08:59:17;61.17;;;26.25;;
35326;SDS011;21436;52.348;20.928;2023-02-15T09:01:47;70.22;;;27.25;;
35326;SDS011;21436;52.348;20.928;2023-02-15T09:04:16;61.97;;;27.05;;
35326;SDS011;21436;52.348;20.928;2023-02-15T09:06:45;61.88;;;25.98;;
35326;SDS011;21436;52.348;20.928;2023-02-15T09:09:15;63.83;;;25.02;;
35326;SDS011;21436;52.348;20.928;2023-02-15T09:11:46;62.13;;;26.30;;
35326;SDS011;21436;52.348;20.928;2023-02-15T09:14:18;62.35;;;26.33;;
35326;SDS011;21436;52.348;20.928;2023-02-15T09:16:52;56.30;;;24.35;;
35326;SDS011;21436;52.348;20.928;2023-02-15T09:19:21;62.90;;;24.77;;
35326;SDS011;21436;52.348;20.928;2023-02-15T09:21:50;59.03;;;23.52;;
35326;SDS011;21436;52.348;20.928;2023-02-15T09:24:18;56.88;;;25.35;;
35326;SDS011;21436;52.348;20.928;2023-02-15T09:26:47;58.05;;;23.05;;
35326;SDS011;21436;52.348;20.928;2023-02-15T09:29:16;62.75;;;23.63;;
35326;SDS011;21436;52.348;20.928;2023-02-15T09:31:45;60.17;;;23.63;;
35326;SDS011;21436;52.348;20.928;2023-02-15T09:34:17;59.13;;;23.20;;
35326;SDS011;21436;52.348;20.928;2023-02-15T09:36:47;65.70;;;25.98;;
35326;SDS011;21436;52.348;20.928;2023-02-15T09:39:16;62.90;;;23.48;;
35326;SDS011;21436;52.348;20.928;2023-02-15T09:50:28;54.78;;;21.63;;
35326;SDS011;21436;52.348;20.928;2023-02-15T09:59:11;59.55;;;24.10;;
35326;SDS011;21436;52.348;20.928;2023-02-15T10:12:59;55.85;;;22.10;;
35326;SDS011;21436;52.348;20.928;2023-02-15T10:18:46;50.88;;;21.48;;
35326;SDS011;21436;52.348;20.928;2023-02-15T10:21:39;57.97;;;23.38;;
35326;SDS011;21436;52.348;20.928;2023-02-15T10:27:21;55.38;;;23.15;;
35326;SDS011;21436;52.348;20.928;2023-02-15T10:29:57;61.25;;;24.27;;
35326;SDS011;21436;52.348;20.928;2023-02-15T10:32:42;59.25;;;22.52;;
35326;SDS011;21436;52.348;20.928;2023-02-15T10:40:59;64.53;;;21.67;;
35326;SDS011;21436;52.348;20.928;2023-02-15T10:52:53;53.28;;;21.20;;
35326;SDS011;21436;52.348;20.928;2023-02-15T10:55:51;60.78;;;22.45;;
35326;SDS011;21436;52.348;20.928;2023-02-15T11:00:47;59.22;;;23.60;;
35326;SDS011;21436;52.348;20.928;2023-02-15T11:06:35;64.55;;;24.10;;
35326;SDS011;21436;52.348;20.928;2023-02-15T11:09:09;54.60;;;21.67;;
35326;SDS011;21436;52.348;20.928;2023-02-15T11:11:40;56.08;;;20.88;;
35326;SDS011;21436;52.348;20.928;2023-02-15T11:14:17;54.28;;;21.02;;
35326;SDS011;21436;52.348;20.928;2023-02-15T11:16:52;64.20;;;22.60;;
35326;SDS011;21436;52.348;20.928;2023-02-15T11:19:26;68.22;;;24.02;;
35326;SDS011;21436;52.348;20.928;2023-02-15T11:21:59;59.92;;;23.02;;
35326;SDS011;21436;52.348;20.928;2023-02-15T11:24:29;59.92;;;23.15;;
35326;SDS011;21436;52.348;20.928;2023-02-15T11:27:03;56.38;;;22.15;;
35326;SDS011;21436;52.348;20.928;2023-02-15T11:29:37;58.83;;;22.70;;
35326;SDS011;21436;52.348;20.928;2023-02-15T11:34:52;65.78;;;24.63;;
35326;SDS011;21436;52.348;20.928;2023-02-15T11:40:00;53.53;;;22.20;;
35326;SDS011;21436;52.348;20.928;2023-02-15T11:42:30;58.20;;;21.33;;
35326;SDS011;21436;52.348;20.928;2023-02-15T11:47:52;52.10;;;20.13;;
35326;SDS011;21436;52.348;20.928;2023-02-15T11:50:26;54.10;;;20.90;;
35326;SDS011;21436;52.348;20.928;2023-02-15T11:53:00;54.75;;;20.85;;
35326;SDS011;21436;52.348;20.928;2023-02-15T11:55:30;57.65;;;22.40;;
35326;SDS011;21436;52.348;20.928;2023-02-15T11:58:05;49.88;;;20.38;;
35326;SDS011;21436;52.348;20.928;2023-02-15T12:00:43;47.60;;;19.63;;
35326;SDS011;21436;52.348;20.928;2023-02-15T12:03:16;54.50;;;21.55;;
35326;SDS011;21436;52.348;20.928;2023-02-15T12:05:52;44.63;;;18.58;;
35326;SDS011;21436;52.348;20.928;2023-02-15T12:08:24;43.88;;;18.73;;
35326;SDS011;21436;52.348;20.928;2023-02-15T12:16:27;47.83;;;18.95;;
35326;SDS011;21436;52.348;20.928;2023-02-15T12:18:57;43.38;;;17.52;;
35326;SDS011;21436;52.348;20.928;2023-02-15T12:21:27;48.33;;;19.55;;
35326;SDS011;21436;52.348;20.928;2023-02-15T12:23:58;45.00;;;18.10;;
35326;SDS011;21436;52.348;20.928;2023-02-15T12:26:44;47.35;;;19.33;;
35326;SDS011;21436;52.348;20.928;2023-02-15T12:29:16;45.53;;;18.77;;
35326;SDS011;21436;52.348;20.928;2023-02-15T12:31:44;47.00;;;19.60;;
35326;SDS011;21436;52.348;20.928;2023-02-15T12:36:48;49.45;;;20.83;;
35326;SDS011;21436;52.348;20.928;2023-02-15T12:39:19;46.97;;;19.92;;
35326;SDS011;21436;52.348;20.928;2023-02-15T12:44:52;54.15;;;21.48;;
35326;SDS011;21436;52.348;20.928;2023-02-15T12:47:31;47.58;;;21.65;;
35326;SDS011;21436;52.348;20.928;2023-02-15T12:52:50;55.65;;;20.35;;
35326;SDS011;21436;52.348;20.928;2023-02-15T12:55:20;57.95;;;21.88;;
35326;SDS011;21436;52.348;20.928;2023-02-15T12:57:49;53.90;;;21.13;;
35326;SDS011;21436;52.348;20.928;2023-02-15T13:00:32;58.55;;;21.88;;
35326;SDS011;21436;52.348;20.928;2023-02-15T13:03:02;55.00;;;22.88;;
35326;SDS011;21436;52.348;20.928;2023-02-15T13:05:35;56.90;;;22.08;;
35326;SDS011;21436;52.348;20.928;2023-02-15T13:13:32;57.78;;;25.60;;
35326;SDS011;21436;52.348;20.928;2023-02-15T13:16:02;58.88;;;23.52;;
35326;SDS011;21436;52.348;20.928;2023-02-15T13:18:37;55.80;;;23.33;;
35326;SDS011;21436;52.348;20.928;2023-02-15T13:21:14;61.83;;;23.30;;
35326;SDS011;21436;52.348;20.928;2023-02-15T13:23:45;61.58;;;22.90;;
35326;SDS011;21436;52.348;20.928;2023-02-15T13:26:16;74.57;;;26.42;;
35326;SDS011;21436;52.348;20.928;2023-02-15T13:28:51;68.65;;;27.30;;
35326;SDS011;21436;52.348;20.928;2023-02-15T13:31:25;68.55;;;26.40;;
35326;SDS011;21436;52.348;20.928;2023-02-15T13:34:17;80.80;;;25.88;;
35326;SDS011;21436;52.348;20.928;2023-02-15T13:36:50;66.18;;;24.30;;
35326;SDS011;21436;52.348;20.928;2023-02-15T13:40:06;62.70;;;24.35;;
35326;SDS011;21436;52.348;20.928;2023-02-15T13:58:27;67.85;;;24.92;;
35326;SDS011;21436;52.348;20.928;2023-02-15T14:06:18;74.60;;;26.33;;
35326;SDS011;21436;52.348;20.928;2023-02-15T14:29:02;61.85;;;24.55;;
35326;SDS011;21436;52.348;20.928;2023-02-15T14:31:30;75.30;;;26.80;;
35326;SDS011;21436;52.348;20.928;2023-02-15T14:34:02;67.38;;;24.73;;
35326;SDS011;21436;52.348;20.928;2023-02-15T14:36:31;70.68;;;25.48;;
35326;SDS011;21436;52.348;20.928;2023-02-15T14:41:57;74.00;;;27.23;;
35326;SDS011;21436;52.348;20.928;2023-02-15T14:47:55;78.13;;;28.67;;
35326;SDS011;21436;52.348;20.928;2023-02-15T14:50:37;76.40;;;26.67;;
35326;SDS011;21436;52.348;20.928;2023-02-15T15:01:16;75.05;;;28.15;;
35326;SDS011;21436;52.348;20.928;2023-02-15T15:03:58;81.18;;;29.10;;
35326;SDS011;21436;52.348;20.928;2023-02-15T15:06:32;82.25;;;28.30;;
35326;SDS011;21436;52.348;20.928;2023-02-15T15:11:49;78.50;;;27.38;;
35326;SDS011;21436;52.348;20.928;2023-02-15T15:17:05;73.38;;;27.40;;
35326;SDS011;21436;52.348;20.928;2023-02-15T15:22:19;73.75;;;26.88;;
35326;SDS011;21436;52.348;20.928;2023-02-15T15:24:50;69.43;;;25.98;;
35326;SDS011;21436;52.348;20.928;2023-02-15T15:33:12;84.95;;;30.98;;
35326;SDS011;21436;52.348;20.928;2023-02-15T15:50:43;79.72;;;30.15;;
35326;SDS011;21436;52.348;20.928;2023-02-15T15:53:31;75.95;;;27.63;;
35326;SDS011;21436;52.348;20.928;2023-02-15T15:56:03;86.75;;;29.90;;
35326;SDS011;21436;52.348;20.928;2023-02-15T15:58:34;81.88;;;29.35;;
35326;SDS011;21436;52.348;20.928;2023-02-15T16:01:04;75.35;;;28.10;;
35326;SDS011;21436;52.348;20.928;2023-02-15T16:03:34;85.53;;;32.28;;
35326;SDS011;21436;52.348;20.928;2023-02-15T16:06:03;83.97;;;30.10;;
35326;SDS011;21436;52.348;20.928;2023-02-15T16:08:33;90.65;;;33.35;;
35326;SDS011;21436;52.348;20.928;2023-02-15T16:11:09;92.85;;;33.58;;
35326;SDS011;21436;52.348;20.928;2023-02-15T16:13:41;87.07;;;31.08;;
35326;SDS011;21436;52.348;20.928;2023-02-15T16:16:11;90.93;;;31.73;;
35326;SDS011;21436;52.348;20.928;2023-02-15T16:18:40;82.40;;;31.58;;
35326;SDS011;21436;52.348;20.928;2023-02-15T16:21:13;91.78;;;31.95;;
35326;SDS011;21436;52.348;20.928;2023-02-15T16:29:33;80.88;;;30.20;;
35326;SDS011;21436;52.348;20.928;2023-02-15T16:32:05;79.28;;;30.75;;
35326;SDS011;21436;52.348;20.928;2023-02-15T16:37:38;69.05;;;24.73;;
35326;SDS011;21436;52.348;20.928;2023-02-15T16:40:06;69.60;;;26.25;;
35326;SDS011;21436;52.348;20.928;2023-02-15T16:42:42;72.50;;;26.05;;
35326;SDS011;21436;52.348;20.928;2023-02-15T16:45:14;75.18;;;27.58;;
35326;SDS011;21436;52.348;20.928;2023-02-15T16:47:46;74.97;;;28.20;;
35326;SDS011;21436;52.348;20.928;2023-02-15T16:50:20;76.90;;;26.25;;
35326;SDS011;21436;52.348;20.928;2023-02-15T16:52:51;69.63;;;25.60;;
35326;SDS011;21436;52.348;20.928;2023-02-15T16:55:27;64.80;;;23.55;;
35326;SDS011;21436;52.348;20.928;2023-02-15T16:57:57;80.38;;;28.50;;
35326;SDS011;21436;52.348;20.928;2023-02-15T17:00:30;81.07;;;28.27;;
35326;SDS011;21436;52.348;20.928;2023-02-15T17:05:32;85.68;;;29.42;;
35326;SDS011;21436;52.348;20.928;2023-02-15T17:08:25;80.50;;;29.90;;
35326;SDS011;21436;52.348;20.928;2023-02-15T17:13:31;90.75;;;32.67;;
35326;SDS011;21436;52.348;20.928;2023-02-15T17:18:38;80.18;;;28.83;;
35326;SDS011;21436;52.348;20.928;2023-02-15T17:21:09;76.53;;;28.27;;
35326;SDS011;21436;52.348;20.928;2023-02-15T17:23:41;79.38;;;28.95;;
35326;SDS011;21436;52.348;20.928;2023-02-15T17:26:13;82.55;;;28.58;;
35326;SDS011;21436;52.348;20.928;2023-02-15T17:28:47;75.68;;;27.45;;
35326;SDS011;21436;52.348;20.928;2023-02-15T17:31:20;63.85;;;25.33;;
35326;SDS011;21436;52.348;20.928;2023-02-15T17:33:48;75.72;;;26.35;;
35326;SDS011;21436;52.348;20.928;2023-02-15T17:36:18;66.80;;;26.10;;
35326;SDS011;21436;52.348;20.928;2023-02-15T17:41:50;70.78;;;25.02;;
35326;SDS011;21436;52.348;20.928;2023-02-15T17:44:20;63.30;;;23.45;;
35326;SDS011;21436;52.348;20.928;2023-02-15T17:46:48;60.40;;;23.30;;
35326;SDS011;21436;52.348;20.928;2023-02-15T17:49:22;54.85;;;20.50;;
35326;SDS011;21436;52.348;20.928;2023-02-15T17:51:52;65.88;;;25.70;;
35326;SDS011;21436;52.348;20.928;2023-02-15T17:54:21;61.22;;;23.35;;
35326;SDS011;21436;52.348;20.928;2023-02-15T17:57:10;64.88;;;26.30;;
35326;SDS011;21436;52.348;20.928;2023-02-15T17:59:40;69.07;;;26.45;;
35326;SDS011;21436;52.348;20.928;2023-02-15T18:02:38;67.40;;;23.77;;
35326;SDS011;21436;52.348;20.928;2023-02-15T18:05:25;72.22;;;25.88;;
35326;SDS011;21436;52.348;20.928;2023-02-15T18:08:15;75.70;;;27.15;;